createdAt,value
2017-11-13T00:00:23.160Z,94.00
2017-11-13T00:02:50.628Z,93.80
2017-11-13T00:05:18.113Z,93.80
2017-11-13T00:07:46.349Z,93.80
2017-11-13T00:10:13.836Z,93.70
2017-11-13T00:12:42.074Z,93.80
2017-11-13T00:15:09.573Z,93.80
2017-11-13T00:17:37.821Z,93.90
2017-11-13T00:20:05.299Z,93.90
2017-11-13T00:22:33.561Z,94.00
2017-11-13T00:25:01.040Z,94.00
2017-11-13T00:27:29.288Z,94.00
2017-11-13T00:29:56.762Z,94.00
2017-11-13T00:32:25.048Z,94.10
2017-11-13T00:34:53.322Z,94.10
2017-11-13T00:37:21.593Z,94.00
2017-11-13T00:39:49.062Z,94.00
2017-11-13T00:42:17.317Z,94.00
2017-11-13T00:44:44.831Z,94.00
2017-11-13T00:47:12.296Z,93.90
2017-11-13T00:49:39.792Z,93.90
2017-11-13T00:52:07.262Z,93.90
2017-11-13T00:54:34.750Z,93.90
2017-11-13T00:57:02.229Z,93.90
2017-11-13T00:59:29.729Z,93.90
2017-11-13T01:01:57.205Z,93.80
2017-11-13T01:04:25.449Z,93.90
2017-11-13T01:06:52.928Z,93.90
2017-11-13T01:09:20.432Z,93.80
2017-11-13T01:11:47.913Z,94.00
2017-11-13T01:14:15.380Z,93.80
2017-11-13T01:16:42.870Z,93.90
2017-11-13T01:19:11.145Z,94.00
2017-11-13T01:21:39.421Z,94.00
2017-11-13T01:24:07.697Z,93.90
2017-11-13T01:26:35.937Z,94.00
2017-11-13T01:29:03.427Z,94.00
2017-11-13T01:31:31.686Z,94.20
2017-11-13T01:33:59.182Z,94.20
2017-11-13T01:36:27.412Z,94.20
2017-11-13T01:38:54.892Z,94.20
2017-11-13T01:41:22.365Z,94.10
2017-11-13T01:43:50.630Z,94.20
2017-11-13T01:46:18.873Z,94.50
2017-11-13T01:48:46.343Z,94.20
2017-11-13T01:51:13.836Z,94.20
2017-11-13T01:53:42.088Z,94.10
2017-11-13T01:56:09.569Z,94.10
2017-11-13T01:58:37.837Z,94.20
2017-11-13T02:01:06.092Z,94.10
2017-11-13T02:03:33.564Z,94.10
2017-11-13T02:06:01.051Z,94.20
2017-11-13T02:08:28.522Z,94.30
2017-11-13T02:10:55.992Z,94.40
2017-11-13T02:13:23.493Z,94.30
2017-11-13T02:15:51.745Z,94.30
2017-11-13T02:18:19.231Z,94.40
2017-11-13T02:20:46.696Z,94.30
2017-11-13T02:23:14.950Z,94.40
2017-11-13T02:25:42.416Z,94.40
2017-11-13T02:28:09.903Z,94.30
2017-11-13T02:30:38.166Z,94.30
2017-11-13T02:33:06.398Z,94.40
2017-11-13T02:35:33.933Z,94.30
2017-11-13T02:38:01.445Z,94.30
2017-11-13T02:40:28.936Z,94.30
2017-11-13T02:42:57.165Z,94.50
2017-11-13T02:45:24.644Z,94.50
2017-11-13T02:47:52.116Z,94.50
2017-11-13T02:50:20.374Z,94.40
2017-11-13T02:52:47.850Z,94.40
2017-11-13T02:55:16.112Z,94.50
2017-11-13T02:57:44.374Z,94.40
2017-11-13T03:00:11.849Z,94.40
2017-11-13T03:02:39.337Z,94.50
2017-11-13T03:05:06.813Z,94.70
2017-11-13T03:07:34.309Z,94.40
2017-11-13T03:10:01.785Z,94.40
2017-11-13T03:12:30.048Z,94.40
2017-11-13T03:14:57.517Z,94.30
2017-11-13T03:17:25.011Z,94.30
2017-11-13T03:19:52.484Z,94.30
2017-11-13T03:22:19.953Z,94.40
2017-11-13T03:24:47.433Z,94.20
2017-11-13T03:27:14.897Z,94.20
2017-11-13T03:29:42.379Z,94.20
2017-11-13T03:32:10.613Z,94.20
2017-11-13T03:34:38.090Z,94.20
2017-11-13T03:37:05.565Z,94.00
2017-11-13T03:39:33.819Z,94.10
2017-11-13T03:42:01.286Z,94.10
2017-11-13T03:44:28.757Z,94.00
2017-11-13T03:46:57.012Z,94.00
2017-11-13T03:49:24.485Z,94.00
2017-11-13T03:51:52.740Z,94.10
2017-11-13T03:54:20.209Z,94.10
2017-11-13T03:56:47.694Z,94.30
2017-11-13T03:59:15.929Z,94.30
2017-11-13T04:01:43.426Z,94.30
2017-11-13T04:04:11.665Z,94.30
2017-11-13T04:06:39.129Z,94.30
2017-11-13T04:09:06.617Z,94.20
2017-11-13T04:11:34.853Z,94.30
2017-11-13T04:14:02.337Z,94.30
2017-11-13T04:16:29.802Z,94.30
2017-11-13T04:18:58.054Z,94.40
2017-11-13T04:21:25.550Z,94.40
2017-11-13T04:23:53.047Z,94.40
2017-11-13T04:26:20.525Z,94.40
2017-11-13T04:28:47.988Z,94.40
2017-11-13T04:31:15.472Z,94.40
2017-11-13T04:33:43.722Z,94.40
2017-11-13T04:36:11.213Z,94.30
2017-11-13T04:38:39.448Z,94.50
2017-11-13T04:41:06.933Z,94.50
2017-11-13T04:43:35.172Z,94.60
2017-11-13T04:46:02.681Z,94.60
2017-11-13T04:48:30.916Z,94.60
2017-11-13T04:50:58.388Z,94.60
2017-11-13T04:53:25.873Z,94.50
2017-11-13T04:55:54.177Z,94.60
2017-11-13T04:58:21.664Z,94.60
2017-11-13T05:00:49.133Z,94.70
2017-11-13T05:03:16.652Z,94.60
2017-11-13T05:05:44.121Z,94.50
2017-11-13T05:08:11.597Z,94.70
2017-11-13T05:10:39.086Z,94.70
2017-11-13T05:13:07.369Z,94.80
2017-11-13T05:15:35.617Z,94.80
2017-11-13T05:18:03.104Z,94.80
2017-11-13T05:20:31.468Z,94.80
2017-11-13T05:22:58.941Z,94.80
2017-11-13T05:25:27.176Z,94.80
2017-11-13T05:27:54.677Z,94.80
2017-11-13T05:30:22.921Z,94.60
2017-11-13T05:32:50.404Z,94.60
2017-11-13T05:35:18.644Z,94.50
2017-11-13T05:37:46.137Z,94.50
2017-11-13T05:40:14.381Z,94.90
2017-11-13T05:42:41.894Z,94.60
2017-11-13T05:45:09.393Z,94.50
2017-11-13T05:47:36.873Z,94.50
2017-11-13T05:50:04.362Z,94.50
2017-11-13T05:52:32.598Z,94.50
2017-11-13T05:55:00.092Z,94.50
2017-11-13T05:57:28.325Z,94.50
2017-11-13T05:59:55.815Z,94.50
2017-11-13T06:02:24.058Z,94.70
2017-11-13T06:04:51.561Z,94.70
2017-11-13T06:07:19.796Z,94.70
2017-11-13T06:09:47.281Z,94.70
2017-11-13T06:12:14.775Z,94.80
2017-11-13T06:14:42.244Z,94.80
2017-11-13T06:17:09.760Z,94.80
2017-11-13T06:19:38.005Z,95.10
2017-11-13T06:22:05.493Z,94.90
2017-11-13T06:24:32.966Z,94.90
2017-11-13T06:27:01.235Z,95.00
2017-11-13T06:29:29.480Z,95.00
2017-11-13T06:31:56.948Z,95.00
2017-11-13T06:34:24.428Z,95.10
2017-11-13T06:36:52.665Z,95.10
2017-11-13T06:39:20.140Z,95.10
2017-11-13T06:41:47.616Z,95.00
2017-11-13T06:44:15.869Z,94.90
2017-11-13T06:46:43.332Z,94.90
2017-11-13T06:49:11.056Z,94.90
2017-11-13T06:51:38.544Z,94.90
2017-11-13T06:54:06.034Z,95.00
2017-11-13T06:56:34.284Z,95.00
2017-11-13T06:59:01.748Z,94.90
2017-11-13T07:01:29.230Z,94.80
2017-11-13T07:03:57.472Z,94.90
2017-11-13T07:06:24.956Z,94.80
2017-11-13T07:08:53.198Z,94.80
2017-11-13T07:11:20.664Z,94.70
2017-11-13T07:13:48.172Z,94.60
2017-11-13T07:16:15.644Z,94.70
2017-11-13T07:18:43.128Z,94.60
2017-11-13T07:21:10.611Z,94.70
2017-11-13T07:23:38.101Z,94.80
2017-11-13T07:26:06.337Z,94.70
2017-11-13T07:28:33.807Z,94.70
2017-11-13T07:31:01.293Z,94.60
2017-11-13T07:33:28.766Z,94.60
2017-11-13T07:35:56.252Z,94.70
2017-11-13T07:38:23.726Z,94.60
2017-11-13T07:40:51.209Z,94.60
2017-11-13T07:43:19.447Z,94.50
2017-11-13T07:45:46.945Z,94.40
2017-11-13T07:48:15.185Z,94.20
2017-11-13T07:50:42.656Z,94.20
2017-11-13T07:53:10.954Z,94.30
2017-11-13T07:55:39.195Z,94.00
2017-11-13T07:58:06.689Z,94.00
2017-11-13T08:00:34.931Z,94.10
2017-11-13T08:03:02.425Z,94.10
2017-11-13T08:05:30.660Z,93.90
2017-11-13T08:07:58.194Z,93.80
2017-11-13T08:10:25.666Z,93.60
2017-11-13T08:12:53.146Z,93.60
2017-11-13T08:15:20.632Z,93.60
2017-11-13T08:17:48.868Z,93.60
2017-11-13T08:20:16.355Z,93.60
2017-11-13T08:22:44.594Z,93.30
2017-11-13T08:25:12.088Z,93.30
2017-11-13T08:27:39.564Z,93.30
2017-11-13T08:30:07.821Z,93.20
2017-11-13T08:32:36.069Z,93.20
2017-11-13T08:35:03.535Z,93.20
2017-11-13T08:37:31.028Z,93.30
2017-11-13T08:39:59.267Z,93.20
2017-11-13T08:42:26.869Z,93.20
2017-11-13T08:44:55.109Z,93.20
2017-11-13T08:47:22.592Z,93.20
2017-11-13T08:49:50.836Z,93.20
2017-11-13T08:52:18.337Z,93.20
2017-11-13T08:54:46.594Z,92.90
2017-11-13T08:57:14.072Z,92.80
2017-11-13T08:59:42.317Z,92.70
2017-11-13T09:02:09.794Z,92.70
2017-11-13T09:04:38.058Z,92.30
2017-11-13T09:07:05.548Z,92.30
2017-11-13T09:09:33.792Z,91.90
2017-11-13T09:12:01.283Z,91.90
2017-11-13T09:14:29.788Z,91.80
2017-11-13T09:16:57.277Z,91.80
2017-11-13T09:19:24.744Z,91.80
2017-11-13T09:21:52.252Z,91.70
2017-11-13T09:24:19.724Z,91.50
2017-11-13T09:26:47.253Z,91.50
2017-11-13T09:29:15.489Z,91.20
2017-11-13T09:31:43.181Z,91.20
2017-11-13T09:34:11.424Z,91.10
2017-11-13T09:36:38.936Z,91.10
2017-11-13T09:39:06.426Z,90.80
2017-11-13T09:41:33.943Z,90.80
2017-11-13T09:44:02.219Z,90.80
2017-11-13T09:46:30.471Z,90.60
2017-11-13T09:48:57.961Z,90.60
2017-11-13T09:51:26.204Z,90.20
2017-11-13T09:53:53.687Z,90.10
2017-11-13T09:56:21.961Z,90.00
2017-11-13T09:58:50.203Z,89.70
2017-11-13T10:01:17.737Z,89.70
2017-11-13T10:03:45.249Z,89.70
2017-11-13T10:06:13.509Z,89.80
2017-11-13T10:08:40.976Z,89.80
2017-11-13T10:11:08.471Z,90.00
2017-11-13T10:13:36.041Z,90.00
2017-11-13T10:16:03.509Z,90.10
2017-11-13T10:18:32.141Z,89.60
2017-11-13T10:21:00.392Z,89.40
2017-11-13T10:23:27.880Z,88.70
2017-11-13T10:25:56.133Z,88.60
2017-11-13T10:28:23.637Z,88.50
2017-11-13T10:30:51.147Z,88.30
2017-11-13T10:33:18.640Z,88.40
2017-11-13T10:35:46.881Z,88.40
2017-11-13T10:38:14.361Z,87.70
2017-11-13T10:40:42.617Z,88.00
2017-11-13T10:43:10.098Z,87.50
2017-11-13T10:45:38.357Z,87.60
2017-11-13T10:48:05.828Z,86.90
2017-11-13T10:50:33.317Z,86.90
2017-11-13T10:53:00.792Z,87.20
2017-11-13T10:55:28.298Z,86.50
2017-11-13T10:57:55.807Z,86.10
2017-11-13T11:00:26.235Z,86.10
2017-11-13T11:02:53.716Z,86.20
2017-11-13T11:05:21.187Z,86.30
2017-11-13T11:07:48.676Z,86.40
2017-11-13T11:10:16.920Z,86.60
2017-11-13T11:12:44.409Z,86.60
2017-11-13T11:15:20.281Z,86.40
2017-11-13T11:21:14.865Z,85.20
2017-11-13T11:23:42.940Z,85.20
2017-11-13T11:26:16.160Z,84.50
2017-11-13T11:28:59.292Z,83.10
2017-11-13T11:31:29.268Z,83.00
2017-11-13T11:34:03.289Z,81.90
2017-11-13T11:36:35.502Z,82.70
2017-11-13T11:39:03.004Z,82.00
2017-11-13T11:41:31.243Z,83.50
2017-11-13T11:44:04.453Z,83.50
2017-11-13T11:46:31.933Z,82.80
2017-11-13T11:52:03.300Z,83.30
2017-11-13T11:54:31.700Z,83.60
2017-11-13T11:57:09.874Z,84.10
2017-11-13T11:59:37.385Z,83.90
2017-11-13T12:02:04.863Z,84.10
2017-11-13T12:04:32.332Z,84.60
2017-11-13T12:06:59.832Z,84.40
2017-11-13T12:09:27.337Z,84.00
2017-11-13T12:11:54.840Z,84.10
2017-11-13T12:14:22.318Z,83.00
2017-11-13T12:16:50.593Z,80.50
2017-11-13T12:19:18.853Z,80.00
2017-11-13T12:21:46.349Z,80.00
2017-11-13T12:24:13.842Z,79.40
2017-11-13T12:26:41.312Z,80.20
2017-11-13T12:29:08.817Z,80.80
2017-11-13T12:31:37.080Z,80.40
2017-11-13T12:34:05.383Z,80.60
2017-11-13T12:36:32.939Z,80.60
2017-11-13T12:39:00.450Z,81.40
2017-11-13T12:41:27.953Z,81.40
2017-11-13T12:43:55.450Z,81.70
2017-11-13T12:46:22.949Z,81.80
2017-11-13T12:48:51.228Z,81.40
2017-11-13T12:51:19.468Z,82.70
2017-11-13T12:53:46.954Z,82.00
2017-11-13T12:56:14.454Z,81.60
2017-11-13T12:58:41.935Z,81.30
2017-11-13T13:01:09.441Z,80.50
2017-11-13T13:03:37.685Z,79.50
2017-11-13T13:06:05.173Z,79.50
2017-11-13T13:08:33.420Z,78.60
2017-11-13T13:11:00.920Z,78.50
2017-11-13T13:13:29.177Z,78.00
2017-11-13T13:15:57.499Z,76.70
2017-11-13T13:18:24.998Z,76.70
2017-11-13T13:20:52.485Z,77.40
2017-11-13T13:23:20.737Z,76.70
2017-11-13T13:25:48.225Z,76.60
2017-11-13T13:28:16.478Z,76.00
2017-11-13T13:30:43.949Z,76.00
2017-11-13T13:33:12.217Z,76.30
2017-11-13T13:35:39.701Z,76.30
2017-11-13T13:38:07.211Z,76.90
2017-11-13T13:40:34.704Z,77.60
2017-11-13T13:43:02.957Z,79.70
2017-11-13T13:45:30.541Z,79.60
2017-11-13T13:47:58.788Z,80.50
2017-11-13T13:50:26.309Z,80.40
2017-11-13T13:52:53.798Z,80.60
2017-11-13T13:55:21.278Z,80.80
2017-11-13T13:57:48.792Z,81.40
2017-11-13T14:00:16.288Z,81.60
2017-11-13T14:02:43.781Z,80.60
2017-11-13T14:05:11.272Z,79.80
2017-11-13T14:07:38.777Z,79.40
2017-11-13T14:10:06.252Z,79.00
2017-11-13T14:12:34.493Z,79.00
2017-11-13T14:15:02.003Z,79.00
2017-11-13T14:17:29.478Z,79.10
2017-11-13T14:19:56.973Z,79.60
2017-11-13T14:22:24.500Z,80.20
2017-11-13T14:24:51.984Z,80.60
2017-11-13T14:27:19.461Z,81.00
2017-11-13T14:29:46.967Z,81.30
2017-11-13T14:32:14.453Z,82.80
2017-11-13T14:34:41.937Z,83.20
2017-11-13T14:37:10.202Z,83.30
2017-11-13T14:39:37.681Z,82.80
2017-11-13T14:42:05.949Z,81.90
2017-11-13T14:44:34.202Z,81.30
2017-11-13T14:47:01.725Z,81.20
2017-11-13T14:49:29.253Z,82.60
2017-11-13T14:51:57.508Z,82.90
2017-11-13T14:54:25.769Z,83.50
2017-11-13T14:56:53.256Z,83.50
2017-11-13T14:59:21.521Z,84.00
2017-11-13T15:01:48.999Z,83.70
2017-11-13T15:04:17.257Z,83.80
2017-11-13T15:06:45.525Z,84.20
2017-11-13T15:09:13.021Z,83.70
2017-11-13T15:11:41.278Z,84.00
2017-11-13T15:14:09.524Z,83.90
2017-11-13T15:16:37.030Z,84.00
2017-11-13T15:19:05.286Z,84.30
2017-11-13T15:21:33.595Z,84.60
2017-11-13T15:24:01.071Z,84.60
2017-11-13T15:26:28.544Z,84.90
2017-11-13T15:28:56.030Z,85.10
2017-11-13T15:31:23.516Z,85.40
2017-11-13T15:33:51.015Z,85.50
2017-11-13T15:36:18.489Z,85.80
2017-11-13T15:38:45.980Z,86.00
2017-11-13T15:41:14.221Z,86.40
2017-11-13T15:43:41.712Z,86.40
2017-11-13T15:46:09.327Z,86.40
2017-11-13T15:48:36.805Z,86.80
2017-11-13T15:51:04.308Z,87.10
2017-11-13T15:53:31.783Z,87.40
2017-11-13T15:55:59.294Z,87.50
2017-11-13T15:58:26.763Z,87.60
2017-11-13T16:00:55.080Z,88.40
2017-11-13T16:03:22.611Z,88.20
2017-11-13T16:05:50.868Z,88.50
2017-11-13T16:08:18.344Z,88.50
2017-11-13T16:10:46.589Z,88.80
2017-11-13T16:13:14.072Z,88.80
2017-11-13T16:15:42.313Z,88.70
2017-11-13T16:18:09.918Z,88.60
2017-11-13T16:20:38.157Z,88.90
2017-11-13T16:23:05.667Z,88.80
2017-11-13T16:25:33.165Z,88.80
2017-11-13T16:28:00.660Z,88.90
2017-11-13T16:30:28.919Z,89.00
2017-11-13T16:32:56.417Z,89.00
2017-11-13T16:35:23.885Z,89.20
2017-11-13T16:37:51.363Z,89.00
2017-11-13T16:40:18.849Z,89.10
2017-11-13T16:42:46.322Z,89.00
2017-11-13T16:45:14.576Z,89.60
2017-11-13T16:47:42.056Z,88.90
2017-11-13T16:50:09.571Z,89.20
2017-11-13T16:52:37.064Z,89.40
2017-11-13T16:55:04.553Z,89.60
2017-11-13T16:57:32.794Z,89.90
2017-11-13T17:00:00.271Z,89.80
2017-11-13T17:02:28.546Z,89.90
2017-11-13T17:04:56.788Z,90.00
2017-11-13T17:07:24.322Z,90.00
2017-11-13T17:09:51.788Z,90.00
2017-11-13T17:12:19.277Z,90.00
2017-11-13T17:14:46.764Z,89.90
2017-11-13T17:17:14.281Z,90.00
2017-11-13T17:19:41.760Z,89.80
2017-11-13T17:22:09.234Z,89.70
2017-11-13T17:24:37.489Z,89.20
2017-11-13T17:27:04.964Z,89.10
2017-11-13T17:29:33.243Z,88.90
2017-11-13T17:32:01.483Z,88.70
2017-11-13T17:34:29.022Z,88.60
2017-11-13T17:36:56.489Z,88.60
2017-11-13T17:39:24.033Z,88.60
2017-11-13T17:41:51.524Z,88.50
2017-11-13T17:44:18.989Z,88.40
2017-11-13T17:46:46.522Z,88.30
2017-11-13T17:49:14.009Z,88.00
2017-11-13T17:51:42.289Z,88.30
2017-11-13T17:54:09.781Z,88.30
2017-11-13T17:56:38.045Z,88.50
2017-11-13T17:59:06.323Z,88.50
2017-11-13T18:01:34.574Z,88.90
2017-11-13T18:04:02.057Z,89.40
2017-11-13T18:06:30.292Z,89.10
2017-11-13T18:08:57.785Z,89.00
2017-11-13T18:11:26.047Z,89.70
2017-11-13T18:13:53.536Z,89.70
2017-11-13T18:16:21.773Z,90.10
2017-11-13T18:18:49.261Z,90.10
2017-11-13T18:21:17.500Z,90.30
2017-11-13T18:23:44.976Z,90.30
2017-11-13T18:26:12.465Z,90.40
2017-11-13T18:28:40.700Z,90.60
2017-11-13T18:31:08.189Z,90.60
2017-11-13T18:33:36.428Z,90.70
2017-11-13T18:36:04.057Z,90.70
2017-11-13T18:38:31.561Z,90.80
2017-11-13T18:40:59.057Z,90.80
2017-11-13T18:43:26.528Z,90.70
2017-11-13T18:45:54.000Z,90.80
2017-11-13T18:48:21.489Z,90.80
2017-11-13T18:50:48.961Z,90.80
2017-11-13T18:53:17.229Z,91.10
2017-11-13T18:55:44.704Z,90.90
2017-11-13T18:58:12.957Z,91.00
2017-11-13T19:00:40.494Z,90.90
2017-11-13T19:03:08.000Z,90.90
2017-11-13T19:05:36.252Z,91.00
2017-11-13T19:08:03.723Z,91.00
2017-11-13T19:10:31.304Z,91.00
2017-11-13T19:12:58.787Z,91.00
